JLY7266 SBPS-SBGR
Flight info
| Callsign | JLY7266 |
|---|---|
| Flight time | 1h 36m |
| Altitude | 38000 |
| Route | EDRAG DCT POSMU DCT REDAD UZ21 VUNOX |
| Aircraft | A319/M-SDE3FGHIRWY/LB1 |
Departure
| Time | 2026-05-04 00:32 |
|---|---|
| Airport | Porto Seguro International Airport (SBPS) |
Arrival
| Time | 2026-05-04 02:09 |
|---|---|
| Airport | São Paulo/Guarulhos–Governor André Franco Montoro International Airport (SBGR) |
| Time | Latitude | Longitude | Altitude | Speed | Heading |
|---|---|---|---|---|---|
| 2026-05-04 00:32 | -16.64837 | -39.05309 | 12067 ft | 328 kts | 230° |
| 2026-05-04 00:32 | -16.66260 | -39.07198 | 12781 ft | 332 kts | 231° |
| 2026-05-04 00:33 | -16.67688 | -39.09096 | 13424 ft | 336 kts | 230° |
| 2026-05-04 00:33 | -16.70610 | -39.12937 | 14695 ft | 343 kts | 230° |
| 2026-05-04 00:33 | -16.72101 | -39.14883 | 15323 ft | 346 kts | 231° |
| 2026-05-04 00:34 | -16.73618 | -39.16859 | 15970 ft | 348 kts | 231° |
| 2026-05-04 00:34 | -16.75127 | -39.18827 | 16594 ft | 350 kts | 231° |
| 2026-05-04 00:34 | -16.76644 | -39.20802 | 17193 ft | 352 kts | 231° |
| 2026-05-04 00:34 | -16.78193 | -39.22821 | 17805 ft | 354 kts | 231° |
| 2026-05-04 00:35 | -16.79720 | -39.24808 | 18386 ft | 356 kts | 231° |
| 2026-05-04 00:35 | -16.81277 | -39.26836 | 18953 ft | 359 kts | 231° |
| 2026-05-04 00:35 | -16.82846 | -39.28882 | 19498 ft | 361 kts | 232° |
| 2026-05-04 00:35 | -16.84407 | -39.30915 | 20045 ft | 363 kts | 232° |
| 2026-05-04 00:36 | -16.85977 | -39.32997 | 20576 ft | 366 kts | 236° |
| 2026-05-04 00:36 | -16.87259 | -39.35290 | 21101 ft | 367 kts | 246° |
| 2026-05-04 00:36 | -16.88107 | -39.37778 | 21616 ft | 368 kts | 257° |
| 2026-05-04 00:36 | -16.88641 | -39.40376 | 22132 ft | 370 kts | 259° |
| 2026-05-04 00:37 | -16.89122 | -39.43033 | 22649 ft | 372 kts | 260° |
| 2026-05-04 00:37 | -16.89596 | -39.45662 | 23149 ft | 374 kts | 260° |
| 2026-05-04 00:37 | -16.90086 | -39.48328 | 23625 ft | 377 kts | 260° |
| 2026-05-04 00:37 | -16.90594 | -39.51044 | 24129 ft | 380 kts | 259° |
| 2026-05-04 00:38 | -16.91100 | -39.53725 | 24613 ft | 382 kts | 259° |
| 2026-05-04 00:38 | -16.91616 | -39.56459 | 25093 ft | 385 kts | 260° |
| 2026-05-04 00:38 | -16.92136 | -39.59211 | 25570 ft | 387 kts | 260° |
| 2026-05-04 00:38 | -16.92655 | -39.61964 | 26036 ft | 389 kts | 260° |
| 2026-05-04 00:39 | -16.93173 | -39.64721 | 26490 ft | 392 kts | 260° |
| 2026-05-04 00:39 | -16.93702 | -39.67534 | 26942 ft | 394 kts | 260° |
| 2026-05-04 00:39 | -16.94232 | -39.70360 | 27390 ft | 397 kts | 260° |
| 2026-05-04 00:39 | -16.94755 | -39.73154 | 27796 ft | 400 kts | 260° |
| 2026-05-04 00:40 | -16.95291 | -39.76012 | 28207 ft | 402 kts | 260° |
| 2026-05-04 00:40 | -16.95825 | -39.78870 | 28614 ft | 405 kts | 260° |
| 2026-05-04 00:40 | -16.96365 | -39.81758 | 29025 ft | 407 kts | 260° |
| 2026-05-04 00:40 | -16.96918 | -39.84681 | 29449 ft | 409 kts | 259° |
| 2026-05-04 00:41 | -16.97668 | -39.87547 | 29873 ft | 412 kts | 253° |
| 2026-05-04 00:41 | -16.98701 | -39.90308 | 30302 ft | 414 kts | 247° |
| 2026-05-04 00:41 | -17.00034 | -39.92987 | 30738 ft | 416 kts | 241° |
| 2026-05-04 00:41 | -17.01624 | -39.95500 | 31168 ft | 418 kts | 237° |
| 2026-05-04 00:42 | -17.03360 | -39.97966 | 31601 ft | 419 kts | 236° |
| 2026-05-04 00:42 | -17.05103 | -40.00404 | 32005 ft | 419 kts | 236° |
| 2026-05-04 00:42 | -17.06849 | -40.02842 | 32428 ft | 419 kts | 235° |
| 2026-05-04 00:42 | -17.08570 | -40.05251 | 32960 ft | 417 kts | 236° |
| 2026-05-04 00:43 | -17.10305 | -40.07682 | 33553 ft | 414 kts | 236° |
| 2026-05-04 00:43 | -17.12020 | -40.10089 | 34074 ft | 412 kts | 236° |
| 2026-05-04 00:43 | -17.13728 | -40.12491 | 34544 ft | 411 kts | 236° |
| 2026-05-04 00:43 | -17.15425 | -40.14879 | 35004 ft | 410 kts | 236° |
| 2026-05-04 00:44 | -17.17133 | -40.17286 | 35469 ft | 409 kts | 236° |
| 2026-05-04 00:44 | -17.18810 | -40.19648 | 35896 ft | 407 kts | 236° |
| 2026-05-04 00:44 | -17.20502 | -40.22035 | 36281 ft | 406 kts | 236° |
| 2026-05-04 00:44 | -17.22177 | -40.24398 | 36604 ft | 407 kts | 236° |
| 2026-05-04 00:45 | -17.23864 | -40.26778 | 36869 ft | 408 kts | 236° |
| 2026-05-04 00:45 | -17.25547 | -40.29155 | 37128 ft | 409 kts | 236° |
| 2026-05-04 00:45 | -17.27239 | -40.31546 | 37391 ft | 409 kts | 236° |
| 2026-05-04 00:45 | -17.28939 | -40.33947 | 37635 ft | 410 kts | 236° |
| 2026-05-04 00:46 | -17.30637 | -40.36346 | 37842 ft | 411 kts | 236° |
| 2026-05-04 00:46 | -17.32332 | -40.38741 | 38060 ft | 412 kts | 236° |
| 2026-05-04 00:46 | -17.34032 | -40.41145 | 38120 ft | 414 kts | 237° |
| 2026-05-04 00:47 | -17.37465 | -40.46003 | 38128 ft | 414 kts | 236° |
| 2026-05-04 00:47 | -17.40877 | -40.50835 | 38131 ft | 414 kts | 236° |
| 2026-05-04 00:48 | -17.44294 | -40.55677 | 38131 ft | 414 kts | 236° |
| 2026-05-04 00:48 | -17.47705 | -40.60514 | 38130 ft | 414 kts | 237° |
| 2026-05-04 00:49 | -17.51139 | -40.65387 | 38130 ft | 414 kts | 237° |
| 2026-05-04 00:49 | -17.54553 | -40.70237 | 38129 ft | 420 kts | 237° |
| 2026-05-04 00:50 | -17.58060 | -40.75223 | 38128 ft | 430 kts | 237° |
| 2026-05-04 00:50 | -17.61650 | -40.80328 | 38128 ft | 438 kts | 237° |
| 2026-05-04 00:51 | -17.65289 | -40.85508 | 38128 ft | 444 kts | 237° |
| 2026-05-04 00:51 | -17.68969 | -40.90746 | 38129 ft | 448 kts | 237° |
| 2026-05-04 00:52 | -17.72639 | -40.95976 | 38130 ft | 448 kts | 237° |
| 2026-05-04 00:52 | -17.76336 | -41.01248 | 38131 ft | 447 kts | 237° |
| 2026-05-04 00:53 | -17.80005 | -41.06485 | 38133 ft | 447 kts | 237° |
| 2026-05-04 00:53 | -17.83680 | -41.11739 | 38133 ft | 446 kts | 237° |
| 2026-05-04 00:54 | -17.87339 | -41.16972 | 38137 ft | 446 kts | 237° |
| 2026-05-04 00:54 | -17.91001 | -41.22212 | 38142 ft | 446 kts | 237° |
| 2026-05-04 00:55 | -17.94672 | -41.27469 | 38147 ft | 446 kts | 237° |
| 2026-05-04 00:55 | -17.98322 | -41.32700 | 38151 ft | 446 kts | 237° |
| 2026-05-04 00:56 | -18.01990 | -41.37965 | 38155 ft | 446 kts | 237° |
| 2026-05-04 00:56 | -18.05639 | -41.43202 | 38156 ft | 445 kts | 237° |
| 2026-05-04 00:57 | -18.09271 | -41.48421 | 38148 ft | 444 kts | 237° |
| 2026-05-04 00:57 | -18.12938 | -41.53696 | 38146 ft | 444 kts | 237° |
| 2026-05-04 00:58 | -18.16547 | -41.58890 | 38142 ft | 443 kts | 237° |
| 2026-05-04 00:58 | -18.20168 | -41.64106 | 38140 ft | 442 kts | 237° |
| 2026-05-04 00:59 | -18.23803 | -41.69345 | 38142 ft | 442 kts | 237° |
| 2026-05-04 00:59 | -18.27408 | -41.74546 | 38137 ft | 442 kts | 237° |
| 2026-05-04 01:00 | -18.31034 | -41.79781 | 38130 ft | 441 kts | 237° |
| 2026-05-04 01:00 | -18.34630 | -41.84980 | 38126 ft | 441 kts | 237° |
| 2026-05-04 01:01 | -18.38228 | -41.90184 | 38125 ft | 441 kts | 237° |
| 2026-05-04 01:01 | -18.41824 | -41.95389 | 38122 ft | 439 kts | 237° |
| 2026-05-04 01:02 | -18.45427 | -42.00607 | 38117 ft | 439 kts | 237° |
| 2026-05-04 01:02 | -18.49002 | -42.05790 | 38121 ft | 439 kts | 237° |
| 2026-05-04 01:03 | -18.52598 | -42.11008 | 38128 ft | 439 kts | 237° |
| 2026-05-04 01:03 | -18.56157 | -42.16177 | 38139 ft | 439 kts | 237° |
| 2026-05-04 01:04 | -18.59755 | -42.21408 | 38144 ft | 439 kts | 237° |
| 2026-05-04 01:04 | -18.63334 | -42.26614 | 38154 ft | 439 kts | 237° |
| 2026-05-04 01:05 | -18.66904 | -42.31815 | 38162 ft | 438 kts | 237° |
| 2026-05-04 01:05 | -18.70448 | -42.36982 | 38170 ft | 439 kts | 237° |
| 2026-05-04 01:06 | -18.74020 | -42.42195 | 38181 ft | 439 kts | 237° |
| 2026-05-04 01:06 | -18.77605 | -42.47425 | 38190 ft | 438 kts | 237° |
| 2026-05-04 01:07 | -18.81159 | -42.52609 | 38194 ft | 438 kts | 237° |
| 2026-05-04 01:07 | -18.84718 | -42.57813 | 38196 ft | 438 kts | 237° |
| 2026-05-04 01:08 | -18.88284 | -42.63033 | 38196 ft | 437 kts | 237° |
| 2026-05-04 01:08 | -18.91805 | -42.68196 | 38196 ft | 436 kts | 238° |
| 2026-05-04 01:09 | -18.95360 | -42.73409 | 38190 ft | 436 kts | 238° |
| 2026-05-04 01:09 | -18.98896 | -42.78599 | 38185 ft | 436 kts | 238° |
| 2026-05-04 01:10 | -19.02438 | -42.83806 | 38185 ft | 436 kts | 238° |
| 2026-05-04 01:10 | -19.05966 | -42.88994 | 38182 ft | 436 kts | 238° |
| 2026-05-04 01:11 | -19.09505 | -42.94205 | 38178 ft | 436 kts | 238° |
| 2026-05-04 01:11 | -19.13018 | -42.99381 | 38175 ft | 436 kts | 237° |
| 2026-05-04 01:12 | -19.16573 | -43.04619 | 38176 ft | 436 kts | 238° |
| 2026-05-04 01:12 | -19.20094 | -43.09813 | 38181 ft | 436 kts | 238° |
| 2026-05-04 01:13 | -19.23616 | -43.15014 | 38181 ft | 436 kts | 238° |
| 2026-05-04 01:13 | -19.27140 | -43.20227 | 38173 ft | 436 kts | 238° |
| 2026-05-04 01:14 | -19.30654 | -43.25423 | 38175 ft | 435 kts | 238° |
| 2026-05-04 01:14 | -19.34192 | -43.30662 | 38184 ft | 436 kts | 238° |
| 2026-05-04 01:15 | -19.37702 | -43.35865 | 38190 ft | 436 kts | 238° |
| 2026-05-04 01:15 | -19.41210 | -43.41069 | 38198 ft | 436 kts | 238° |
| 2026-05-04 01:16 | -19.44736 | -43.46302 | 38210 ft | 436 kts | 238° |
| 2026-05-04 01:16 | -19.48246 | -43.51516 | 38215 ft | 436 kts | 238° |
| 2026-05-04 01:17 | -19.51765 | -43.56750 | 38213 ft | 437 kts | 238° |
| 2026-05-04 01:17 | -19.55299 | -43.62009 | 38202 ft | 437 kts | 238° |
| 2026-05-04 01:18 | -19.58819 | -43.67254 | 38206 ft | 436 kts | 239° |
| 2026-05-04 01:18 | -19.62312 | -43.72459 | 38205 ft | 436 kts | 239° |
| 2026-05-04 01:19 | -19.65827 | -43.77704 | 38201 ft | 435 kts | 239° |
| 2026-05-04 01:19 | -19.69327 | -43.82933 | 38205 ft | 435 kts | 239° |
| 2026-05-04 01:20 | -19.72836 | -43.88179 | 38203 ft | 436 kts | 239° |
| 2026-05-04 01:20 | -19.76317 | -43.93387 | 38207 ft | 436 kts | 239° |
| 2026-05-04 01:21 | -19.79839 | -43.98662 | 38205 ft | 436 kts | 239° |
| 2026-05-04 01:21 | -19.83342 | -44.03912 | 38219 ft | 437 kts | 239° |
| 2026-05-04 01:22 | -19.86839 | -44.09160 | 38214 ft | 437 kts | 239° |
| 2026-05-04 01:22 | -19.90350 | -44.14431 | 38215 ft | 436 kts | 239° |
| 2026-05-04 01:23 | -19.93830 | -44.19660 | 38205 ft | 436 kts | 239° |
| 2026-05-04 01:23 | -19.97322 | -44.24916 | 38201 ft | 435 kts | 239° |
| 2026-05-04 01:24 | -20.00812 | -44.30173 | 38199 ft | 434 kts | 239° |
| 2026-05-04 01:24 | -20.04274 | -44.35392 | 38207 ft | 433 kts | 239° |
| 2026-05-04 01:25 | -20.07754 | -44.40643 | 38202 ft | 433 kts | 238° |
| 2026-05-04 01:25 | -20.11462 | -44.45693 | 38208 ft | 436 kts | 233° |
| 2026-05-04 01:26 | -20.15661 | -44.50396 | 38207 ft | 439 kts | 228° |
| 2026-05-04 01:26 | -20.20261 | -44.54632 | 38205 ft | 442 kts | 223° |
| 2026-05-04 01:27 | -20.25232 | -44.58564 | 38203 ft | 443 kts | 221° |
| 2026-05-04 01:27 | -20.30176 | -44.62412 | 38204 ft | 443 kts | 221° |
| 2026-05-04 01:28 | -20.35167 | -44.66299 | 38206 ft | 442 kts | 222° |
| 2026-05-04 01:28 | -20.40132 | -44.70171 | 38201 ft | 441 kts | 222° |
| 2026-05-04 01:29 | -20.45079 | -44.74035 | 38204 ft | 441 kts | 222° |
| 2026-05-04 01:29 | -20.49989 | -44.77869 | 38207 ft | 440 kts | 222° |
| 2026-05-04 01:30 | -20.54929 | -44.81720 | 38207 ft | 439 kts | 222° |
| 2026-05-04 01:30 | -20.59884 | -44.85590 | 38203 ft | 439 kts | 222° |
| 2026-05-04 01:31 | -20.64810 | -44.89443 | 38207 ft | 440 kts | 222° |
| 2026-05-04 01:31 | -20.69730 | -44.93296 | 38209 ft | 438 kts | 222° |
| 2026-05-04 01:32 | -20.74648 | -44.97150 | 38210 ft | 438 kts | 222° |
| 2026-05-04 01:32 | -20.79526 | -45.00980 | 38209 ft | 437 kts | 222° |
| 2026-05-04 01:33 | -20.84429 | -45.04841 | 38210 ft | 436 kts | 222° |
| 2026-05-04 01:33 | -20.89326 | -45.08700 | 38208 ft | 436 kts | 222° |
| 2026-05-04 01:34 | -20.94217 | -45.12544 | 38211 ft | 436 kts | 222° |
| 2026-05-04 01:34 | -20.99082 | -45.16370 | 38210 ft | 436 kts | 222° |
| 2026-05-04 01:35 | -21.03980 | -45.20230 | 38210 ft | 435 kts | 223° |
| 2026-05-04 01:35 | -21.08833 | -45.24059 | 38208 ft | 434 kts | 222° |
| 2026-05-04 01:36 | -21.13677 | -45.27885 | 38208 ft | 433 kts | 223° |
| 2026-05-04 01:36 | -21.18526 | -45.31720 | 38211 ft | 432 kts | 223° |
| 2026-05-04 01:37 | -21.23372 | -45.35553 | 38209 ft | 432 kts | 223° |
| 2026-05-04 01:37 | -21.28186 | -45.39368 | 38209 ft | 433 kts | 223° |
| 2026-05-04 01:38 | -21.33043 | -45.43216 | 38210 ft | 432 kts | 223° |
| 2026-05-04 01:38 | -21.37858 | -45.47036 | 38209 ft | 432 kts | 223° |
| 2026-05-04 01:39 | -21.42699 | -45.50883 | 38210 ft | 432 kts | 223° |
| 2026-05-04 01:39 | -21.47533 | -45.54725 | 38210 ft | 432 kts | 223° |
| 2026-05-04 01:40 | -21.52369 | -45.58550 | 38214 ft | 431 kts | 222° |
| 2026-05-04 01:40 | -21.57184 | -45.62321 | 38214 ft | 431 kts | 222° |
| 2026-05-04 01:41 | -21.62031 | -45.66121 | 38216 ft | 431 kts | 223° |
| 2026-05-04 01:41 | -21.66882 | -45.69932 | 37997 ft | 426 kts | 223° |
| 2026-05-04 01:41 | -21.69230 | -45.71777 | 37330 ft | 422 kts | 223° |
| 2026-05-04 01:42 | -21.71592 | -45.73635 | 36624 ft | 420 kts | 223° |
| 2026-05-04 01:42 | -21.73933 | -45.75479 | 35890 ft | 418 kts | 223° |
| 2026-05-04 01:42 | -21.76266 | -45.77317 | 35172 ft | 416 kts | 223° |
| 2026-05-04 01:42 | -21.78599 | -45.79157 | 34453 ft | 415 kts | 223° |
| 2026-05-04 01:43 | -21.80916 | -45.80986 | 33765 ft | 413 kts | 223° |
| 2026-05-04 01:43 | -21.83224 | -45.82807 | 33059 ft | 412 kts | 223° |
| 2026-05-04 01:43 | -21.85530 | -45.84628 | 32388 ft | 411 kts | 223° |
| 2026-05-04 01:43 | -21.87837 | -45.86451 | 31715 ft | 411 kts | 223° |
| 2026-05-04 01:44 | -21.90104 | -45.88242 | 31257 ft | 405 kts | 223° |
| 2026-05-04 01:44 | -21.92369 | -45.90029 | 30812 ft | 398 kts | 223° |
| 2026-05-04 01:44 | -21.94580 | -45.91775 | 30366 ft | 393 kts | 223° |
| 2026-05-04 01:44 | -21.96764 | -45.93504 | 29914 ft | 387 kts | 223° |
| 2026-05-04 01:45 | -21.98914 | -45.95205 | 29470 ft | 382 kts | 223° |
| 2026-05-04 01:45 | -22.01041 | -45.96890 | 29027 ft | 377 kts | 223° |
| 2026-05-04 01:45 | -22.05211 | -46.00193 | 28147 ft | 368 kts | 223° |
| 2026-05-04 01:46 | -22.07257 | -46.01818 | 27698 ft | 364 kts | 223° |
| 2026-05-04 01:46 | -22.09292 | -46.03432 | 27241 ft | 360 kts | 223° |
| 2026-05-04 01:46 | -22.11282 | -46.05011 | 26795 ft | 357 kts | 223° |
| 2026-05-04 01:46 | -22.13283 | -46.06601 | 26347 ft | 353 kts | 222° |
| 2026-05-04 01:47 | -22.15260 | -46.08170 | 25903 ft | 350 kts | 222° |
| 2026-05-04 01:47 | -22.16981 | -46.09535 | 25514 ft | 348 kts | 222° |
| 2026-05-04 01:47 | -22.18928 | -46.11081 | 25080 ft | 346 kts | 222° |
| 2026-05-04 01:47 | -22.20859 | -46.12616 | 24638 ft | 343 kts | 222° |
| 2026-05-04 01:48 | -22.22771 | -46.14137 | 24202 ft | 341 kts | 221° |
| 2026-05-04 01:48 | -22.24671 | -46.15648 | 23777 ft | 339 kts | 221° |
| 2026-05-04 01:48 | -22.26557 | -46.17149 | 23361 ft | 338 kts | 221° |
| 2026-05-04 01:48 | -22.28462 | -46.18664 | 22935 ft | 336 kts | 221° |
| 2026-05-04 01:49 | -22.30389 | -46.20097 | 22505 ft | 338 kts | 214° |
| 2026-05-04 01:49 | -22.32528 | -46.21157 | 22090 ft | 342 kts | 205° |
| 2026-05-04 01:49 | -22.34839 | -46.21795 | 21706 ft | 345 kts | 195° |
| 2026-05-04 01:49 | -22.37202 | -46.22192 | 21300 ft | 344 kts | 194° |
| 2026-05-04 01:50 | -22.39555 | -46.22548 | 20893 ft | 343 kts | 193° |
| 2026-05-04 01:50 | -22.41919 | -46.22904 | 20484 ft | 341 kts | 193° |
| 2026-05-04 01:50 | -22.44261 | -46.23260 | 20076 ft | 340 kts | 193° |
| 2026-05-04 01:50 | -22.46616 | -46.23621 | 19661 ft | 339 kts | 193° |
| 2026-05-04 01:51 | -22.48965 | -46.23983 | 19252 ft | 338 kts | 193° |
| 2026-05-04 01:51 | -22.51268 | -46.24342 | 18842 ft | 337 kts | 193° |
| 2026-05-04 01:51 | -22.53597 | -46.24703 | 18429 ft | 337 kts | 193° |
| 2026-05-04 01:51 | -22.55921 | -46.25064 | 18187 ft | 340 kts | 192° |
| 2026-05-04 01:52 | -22.58305 | -46.25435 | 18211 ft | 344 kts | 193° |
| 2026-05-04 01:52 | -22.60665 | -46.25801 | 18231 ft | 345 kts | 193° |
| 2026-05-04 01:52 | -22.63073 | -46.26174 | 18253 ft | 346 kts | 192° |
| 2026-05-04 01:52 | -22.65455 | -46.26543 | 18261 ft | 346 kts | 193° |
| 2026-05-04 01:53 | -22.67848 | -46.26915 | 18228 ft | 346 kts | 193° |
| 2026-05-04 01:53 | -22.70241 | -46.27289 | 17802 ft | 348 kts | 192° |
| 2026-05-04 01:53 | -22.72620 | -46.27660 | 17332 ft | 348 kts | 192° |
| 2026-05-04 01:53 | -22.75031 | -46.28035 | 16868 ft | 348 kts | 192° |
| 2026-05-04 01:54 | -22.77390 | -46.28518 | 16408 ft | 344 kts | 199° |
| 2026-05-04 01:54 | -22.79616 | -46.29403 | 16096 ft | 334 kts | 208° |
| 2026-05-04 01:54 | -22.81662 | -46.30582 | 16115 ft | 331 kts | 213° |
| 2026-05-04 01:54 | -22.83661 | -46.31820 | 16141 ft | 331 kts | 213° |
| 2026-05-04 01:55 | -22.85656 | -46.33067 | 16158 ft | 331 kts | 213° |
| 2026-05-04 01:55 | -22.87652 | -46.34314 | 16068 ft | 332 kts | 213° |
| 2026-05-04 01:55 | -22.89659 | -46.35565 | 15590 ft | 333 kts | 213° |
| 2026-05-04 01:55 | -22.91682 | -46.36826 | 15101 ft | 334 kts | 213° |
| 2026-05-04 01:56 | -22.93673 | -46.38064 | 14643 ft | 334 kts | 213° |
| 2026-05-04 01:56 | -22.95702 | -46.39324 | 14175 ft | 333 kts | 212° |
| 2026-05-04 01:56 | -22.97704 | -46.40568 | 13720 ft | 332 kts | 212° |
| 2026-05-04 01:56 | -22.99723 | -46.41824 | 13253 ft | 331 kts | 212° |
| 2026-05-04 01:57 | -23.01698 | -46.43051 | 12810 ft | 330 kts | 212° |
| 2026-05-04 01:57 | -23.03697 | -46.44292 | 12367 ft | 328 kts | 212° |
| 2026-05-04 01:57 | -23.05670 | -46.45518 | 11933 ft | 325 kts | 212° |
| 2026-05-04 01:57 | -23.07607 | -46.46724 | 11497 ft | 323 kts | 212° |
| 2026-05-04 01:58 | -23.09577 | -46.47950 | 11060 ft | 321 kts | 212° |
| 2026-05-04 01:58 | -23.11490 | -46.49140 | 10637 ft | 319 kts | 212° |
| 2026-05-04 01:58 | -23.13398 | -46.50329 | 10298 ft | 313 kts | 211° |
| 2026-05-04 01:58 | -23.15255 | -46.51483 | 10167 ft | 300 kts | 212° |
| 2026-05-04 01:59 | -23.17045 | -46.52596 | 9882 ft | 294 kts | 212° |
| 2026-05-04 01:59 | -23.18830 | -46.53711 | 9499 ft | 292 kts | 211° |
| 2026-05-04 01:59 | -23.20566 | -46.54798 | 9129 ft | 290 kts | 212° |
| 2026-05-04 01:59 | -23.22284 | -46.55976 | 8755 ft | 288 kts | 214° |
| 2026-05-04 02:00 | -23.23948 | -46.57156 | 8382 ft | 287 kts | 214° |
| 2026-05-04 02:00 | -23.25613 | -46.58345 | 8018 ft | 285 kts | 214° |
| 2026-05-04 02:00 | -23.27273 | -46.59527 | 7671 ft | 283 kts | 214° |
| 2026-05-04 02:00 | -23.28905 | -46.60686 | 7326 ft | 282 kts | 214° |
| 2026-05-04 02:01 | -23.30557 | -46.61860 | 6973 ft | 281 kts | 214° |
| 2026-05-04 02:01 | -23.32184 | -46.63016 | 6624 ft | 280 kts | 214° |
| 2026-05-04 02:01 | -23.33810 | -46.64172 | 6278 ft | 279 kts | 213° |
| 2026-05-04 02:01 | -23.35428 | -46.65324 | 6114 ft | 270 kts | 214° |
| 2026-05-04 02:02 | -23.36955 | -46.66407 | 6089 ft | 255 kts | 214° |
| 2026-05-04 02:02 | -23.38395 | -46.67429 | 6053 ft | 243 kts | 214° |
| 2026-05-04 02:02 | -23.39787 | -46.68418 | 6015 ft | 230 kts | 214° |
| 2026-05-04 02:02 | -23.41091 | -46.69347 | 5975 ft | 218 kts | 212° |
| 2026-05-04 02:03 | -23.42472 | -46.69885 | 5910 ft | 205 kts | 174° |
| 2026-05-04 02:03 | -23.43717 | -46.69322 | 5789 ft | 192 kts | 130° |
| 2026-05-04 02:03 | -23.44402 | -46.68120 | 5450 ft | 189 kts | 115° |
| 2026-05-04 02:03 | -23.45053 | -46.66879 | 5124 ft | 189 kts | 119° |
| 2026-05-04 02:04 | -23.45736 | -46.65703 | 4926 ft | 182 kts | 121° |
| 2026-05-04 02:04 | -23.46398 | -46.64612 | 4819 ft | 169 kts | 121° |
| 2026-05-04 02:04 | -23.47017 | -46.63613 | 4706 ft | 158 kts | 121° |
| 2026-05-04 02:04 | -23.47476 | -46.62590 | 4466 ft | 152 kts | 94° |
| 2026-05-04 02:05 | -23.47362 | -46.61503 | 4455 ft | 143 kts | 76° |
| 2026-05-04 02:05 | -23.47091 | -46.60475 | 4476 ft | 135 kts | 72° |
| 2026-05-04 02:05 | -23.46816 | -46.59523 | 4429 ft | 131 kts | 73° |
| 2026-05-04 02:05 | -23.46551 | -46.58588 | 4267 ft | 129 kts | 74° |
| 2026-05-04 02:06 | -23.46293 | -46.57652 | 4097 ft | 128 kts | 75° |
| 2026-05-04 02:06 | -23.46038 | -46.56714 | 3928 ft | 128 kts | 76° |
| 2026-05-04 02:06 | -23.45790 | -46.55791 | 3763 ft | 128 kts | 77° |
| 2026-05-04 02:06 | -23.45539 | -46.54854 | 3597 ft | 127 kts | 76° |
| 2026-05-04 02:07 | -23.45294 | -46.53941 | 3438 ft | 127 kts | 75° |
| 2026-05-04 02:07 | -23.45043 | -46.53016 | 3266 ft | 127 kts | 76° |
| 2026-05-04 02:07 | -23.44794 | -46.52097 | 3099 ft | 127 kts | 77° |
| 2026-05-04 02:07 | -23.44549 | -46.51186 | 2941 ft | 126 kts | 76° |
| 2026-05-04 02:08 | -23.44300 | -46.50268 | 2767 ft | 126 kts | 76° |
| 2026-05-04 02:08 | -23.44059 | -46.49347 | 2601 ft | 126 kts | 75° |
| 2026-05-04 02:08 | -23.43805 | -46.48440 | 2477 ft | 126 kts | 76° |
| 2026-05-04 02:08 | -23.43589 | -46.47625 | 2475 ft | 89 kts | 74° |
| 2026-05-04 02:09 | -23.43462 | -46.47152 | 2470 ft | 40 kts | 72° |
| 2026-05-04 02:09 | -23.43384 | -46.46967 | 2465 ft | 25 kts | 58° |
| 2026-05-04 02:09 | -23.43259 | -46.46820 | 2458 ft | 27 kts | 44° |
| 2026-05-04 02:09 | -23.43146 | -46.46715 | 2453 ft | 8 kts | 19° |
| 2026-05-04 02:10 | -23.43087 | -46.46719 | 2452 ft | 10 kts | 344° |
| 2026-05-04 02:10 | -23.43001 | -46.46747 | 2451 ft | 14 kts | 343° |
| 2026-05-04 02:10 | -23.42896 | -46.46778 | 2449 ft | 16 kts | 345° |
| 2026-05-04 02:10 | -23.42784 | -46.46824 | 2447 ft | 16 kts | 308° |
| 2026-05-04 02:11 | -23.42788 | -46.46923 | 2447 ft | 13 kts | 255° |
| 2026-05-04 02:11 | -23.42813 | -46.47018 | 2447 ft | 12 kts | 253° |
| 2026-05-04 02:11 | -23.42839 | -46.47111 | 2447 ft | 12 kts | 254° |
| 2026-05-04 02:11 | -23.42863 | -46.47205 | 2448 ft | 12 kts | 254° |
| 2026-05-04 02:12 | -23.42889 | -46.47299 | 2449 ft | 12 kts | 253° |
| 2026-05-04 02:12 | -23.42914 | -46.47392 | 2449 ft | 13 kts | 254° |
| 2026-05-04 02:12 | -23.42941 | -46.47493 | 2449 ft | 14 kts | 254° |
| 2026-05-04 02:12 | -23.42969 | -46.47596 | 2450 ft | 14 kts | 254° |
| 2026-05-04 02:13 | -23.42998 | -46.47702 | 2450 ft | 14 kts | 252° |
| 2026-05-04 02:13 | -23.43028 | -46.47815 | 2450 ft | 15 kts | 254° |
| 2026-05-04 02:13 | -23.43060 | -46.47933 | 2451 ft | 16 kts | 254° |
| 2026-05-04 02:13 | -23.43093 | -46.48054 | 2451 ft | 13 kts | 255° |
| 2026-05-04 02:14 | -23.43065 | -46.48127 | 2450 ft | 10 kts | 342° |
| 2026-05-04 02:14 | -23.42985 | -46.48137 | 2449 ft | 12 kts | 356° |
| 2026-05-04 02:14 | -23.42903 | -46.48161 | 2449 ft | 12 kts | 339° |
| 2026-05-04 02:14 | -23.42847 | -46.48188 | 2448 ft | 7 kts | 281° |
| 2026-05-04 02:15 | -23.42851 | -46.48233 | 2448 ft | 0 kts | 264° |
| 2026-05-04 02:15 | -23.42851 | -46.48235 | 2448 ft | 0 kts | 265° |